Time;durP1;ratioP1;P1;durP2;ratioP2;P2;SDS_P1;SDS_P2;PMS_P1;PMS_P2;Temp;Humidity;BMP_temperature;BMP_pressure;BME280_temperature;BME280_humidity;BME280_pressure;Samples;Min_cycle;Max_cycle;Signal;HPM_P1;HPM_P2
2023/04/09 00:00:22;;;;;;;;;;;;;;;6.83;100.00;100266.44;5071477;28;816;-59
2023/04/09 00:02:48;;;;;;;;;;;;;;;6.85;100.00;100266.88;5071479;28;802;-59
2023/04/09 00:05:15;;;;;;;;;;;;;;;6.81;100.00;100260.53;5071463;28;810;-59
2023/04/09 00:07:41;;;;;;;;;;;;;;;6.76;100.00;100264.34;5071508;28;826;-59
2023/04/09 00:10:08;;;;;;;;;;;;;;;6.70;100.00;100266.63;5071678;28;1939;-59
2023/04/09 00:12:35;;;;;;;;;;;;;;;6.66;100.00;100265.78;5071562;28;806;-59
2023/04/09 00:15:01;;;;;;;;;;;;;;;6.59;100.00;100262.88;5071574;28;798;-59
2023/04/09 00:17:28;;;;;;;;;;;;;;;6.52;100.00;100258.03;5071635;28;798;-59
2023/04/09 00:19:55;;;;;;;;;;;;;;;6.47;100.00;100261.09;5072125;28;770;-59
2023/04/09 00:22:21;;;;;;;;;;;;;;;6.45;100.00;100263.41;5072011;28;763;-59
2023/04/09 00:24:48;;;;;;;;;;;;;;;6.45;100.00;100262.63;5071240;28;857;-59
2023/04/09 00:27:14;;;;;;;;;;;;;;;6.41;100.00;100264.50;5071484;28;829;-59
2023/04/09 00:29:41;;;;;;;;;;;;;;;6.33;100.00;100269.06;5071413;28;893;-59
2023/04/09 00:32:08;;;;;;;;;;;;;;;6.19;100.00;100266.84;5071114;28;1979;-59
2023/04/09 00:34:35;;;;;;;;;;;;;;;6.04;100.00;100263.00;5071161;28;811;-59
2023/04/09 00:37:01;;;;;;;;;;;;;;;5.90;100.00;100268.94;5071282;28;834;-59
2023/04/09 00:39:28;;;;;;;;;;;;;;;5.68;100.00;100261.41;5075017;28;825;-59
2023/04/09 00:41:58;;;;;;;;;;;;;;;5.44;100.00;100263.22;5075239;28;857;-59
2023/04/09 00:44:25;;;;;;;;;;;;;;;5.18;100.00;100258.28;5075210;28;845;-59
2023/04/09 00:46:51;;;;;;;;;;;;;;;4.95;100.00;100263.63;5075073;28;822;-59
2023/04/09 00:49:18;;;;;;;;;;;;;;;4.70;100.00;100252.03;5075676;28;770;-59
2023/04/09 00:51:45;;;;;;;;;;;;;;;4.50;100.00;100257.38;5073578;28;1947;-59
2023/04/09 00:54:12;;;;;;;;;;;;;;;4.37;100.00;100264.03;5075053;28;861;-59
2023/04/09 00:56:39;;;;;;;;;;;;;;;4.26;100.00;100255.53;5074613;28;834;-59
2023/04/09 00:59:05;;;;;;;;;;;;;;;4.15;100.00;100259.13;5075587;28;833;-59
2023/04/09 01:01:32;;;;;;;;;;;;;;;4.02;100.00;100256.44;5074597;28;802;-59
2023/04/09 01:03:59;;;;;;;;;;;;;;;3.93;100.00;100263.19;5074585;28;826;-59
2023/04/09 01:06:44;;;;;;;;;;;;;;;3.96;100.00;100257.81;5074537;28;840;-59
2023/04/09 01:09:29;;;;;;;;;;;;;;;3.99;100.00;100257.13;5074643;28;889;-59
2023/04/09 01:12:18;;;;;;;;;;;;;;;4.05;100.00;100260.41;5074233;28;1906;-59
2023/04/09 01:14:51;;;;;;;;;;;;;;;4.04;100.00;100253.38;5074391;28;777;-59
2023/04/09 01:17:36;;;;;;;;;;;;;;;3.98;100.00;100252.78;5073443;28;873;-59
2023/04/09 01:20:04;;;;;;;;;;;;;;;3.88;100.00;100253.28;5074299;28;920;-59
2023/04/09 01:22:49;;;;;;;;;;;;;;;3.81;100.00;100253.88;5074250;28;869;-59
2023/04/09 01:25:35;;;;;;;;;;;;;;;3.71;100.00;100254.34;5074061;28;1024;-59
2023/04/09 01:28:15;;;;;;;;;;;;;;;3.70;100.00;100252.75;5074110;28;970;-59
2023/04/09 01:30:46;;;;;;;;;;;;;;;3.75;100.00;100249.78;5072776;28;1944;-59
2023/04/09 01:33:13;;;;;;;;;;;;;;;3.70;100.00;100249.25;5074041;28;907;-59
2023/04/09 01:35:41;;;;;;;;;;;;;;;3.87;100.00;100244.28;5074052;28;794;-59
2023/04/09 01:38:10;;;;;;;;;;;;;;;3.98;100.00;100247.31;5074297;28;822;-59
2023/04/09 01:40:36;;;;;;;;;;;;;;;4.06;100.00;100238.19;5073915;28;846;-59
2023/04/09 01:43:03;;;;;;;;;;;;;;;4.20;100.00;100234.25;5073933;28;897;-59
2023/04/09 01:45:29;;;;;;;;;;;;;;;4.20;100.00;100236.97;5073798;28;884;-59
2023/04/09 01:47:56;;;;;;;;;;;;;;;4.16;100.00;100236.09;5073794;28;889;-59
2023/04/09 01:50:22;;;;;;;;;;;;;;;4.13;100.00;100234.06;5072450;28;1949;-59
2023/04/09 01:52:49;;;;;;;;;;;;;;;4.13;100.00;100228.59;5073660;28;873;-59
2023/04/09 01:55:15;;;;;;;;;;;;;;;4.22;100.00;100238.22;5073656;28;849;-59
2023/04/09 01:57:41;;;;;;;;;;;;;;;4.14;100.00;100236.47;5073597;28;810;-59
2023/04/09 02:00:09;;;;;;;;;;;;;;;4.21;100.00;100230.38;5073511;28;825;-59
2023/04/09 02:02:43;;;;;;;;;;;;;;;4.20;100.00;100229.56;5073578;28;869;-59
2023/04/09 02:05:11;;;;;;;;;;;;;;;4.17;100.00;100229.50;5073725;28;846;-59
2023/04/09 02:07:39;;;;;;;;;;;;;;;4.18;100.00;100231.06;5073396;28;842;-59
2023/04/09 02:10:07;;;;;;;;;;;;;;;4.18;100.00;100231.06;5073470;28;1972;-59
2023/04/09 02:12:36;;;;;;;;;;;;;;;4.32;100.00;100231.47;5073323;28;874;-59
2023/04/09 02:15:05;;;;;;;;;;;;;;;4.28;100.00;100236.03;5073940;28;771;-59
2023/04/09 02:17:32;;;;;;;;;;;;;;;4.27;100.00;100235.25;5073353;28;814;-59
2023/04/09 02:19:58;;;;;;;;;;;;;;;4.25;100.00;100229.34;5073437;28;897;-59
2023/04/09 02:22:25;;;;;;;;;;;;;;;4.20;100.00;100231.50;5073464;28;802;-59
2023/04/09 02:24:51;;;;;;;;;;;;;;;4.13;100.00;100232.13;5073714;28;828;-59
2023/04/09 02:27:18;;;;;;;;;;;;;;;4.18;100.00;100229.16;5073694;28;775;-59
2023/04/09 02:29:45;;;;;;;;;;;;;;;4.18;100.00;100226.41;5073613;28;811;-59
2023/04/09 02:32:11;;;;;;;;;;;;;;;4.24;100.00;100225.00;5072875;28;1874;-59
2023/04/09 02:34:38;;;;;;;;;;;;;;;4.17;100.00;100226.75;5072847;28;802;-59
2023/04/09 02:37:04;;;;;;;;;;;;;;;4.11;100.00;100220.72;5072910;28;830;-59
2023/04/09 02:39:31;;;;;;;;;;;;;;;4.21;100.00;100227.66;5072708;28;850;-59
2023/04/09 02:42:01;;;;;;;;;;;;;;;4.33;100.00;100233.03;5072769;28;846;-59
2023/04/09 02:44:27;;;;;;;;;;;;;;;4.37;100.00;100228.47;5073353;28;866;-59
2023/04/09 02:46:54;;;;;;;;;;;;;;;4.36;100.00;100221.41;5073393;28;837;-59
2023/04/09 02:49:21;;;;;;;;;;;;;;;4.29;100.00;100230.22;5072704;28;876;-59
2023/04/09 02:51:47;;;;;;;;;;;;;;;4.20;100.00;100226.84;5072897;28;1914;-59
2023/04/09 02:54:14;;;;;;;;;;;;;;;3.99;100.00;100228.97;5072395;28;802;-59
2023/04/09 02:56:40;;;;;;;;;;;;;;;3.84;100.00;100225.84;5072439;28;821;-59
2023/04/09 02:59:06;;;;;;;;;;;;;;;3.77;100.00;100217.41;5072399;28;878;-59
2023/04/09 03:01:33;;;;;;;;;;;;;;;3.74;100.00;100234.53;5072001;28;798;-59
2023/04/09 03:04:00;;;;;;;;;;;;;;;3.64;100.00;100229.53;5072293;28;822;-59
2023/04/09 03:06:27;;;;;;;;;;;;;;;3.54;100.00;100230.81;5072244;28;794;-59
2023/04/09 03:08:53;;;;;;;;;;;;;;;3.62;100.00;100234.56;5070901;28;1284;-59
2023/04/09 03:11:20;;;;;;;;;;;;;;;3.70;100.00;100235.56;5070619;28;1969;-60
2023/04/09 03:13:46;;;;;;;;;;;;;;;3.66;100.00;100235.44;5072169;28;868;-59
2023/04/09 03:16:13;;;;;;;;;;;;;;;3.62;100.00;100237.28;5072072;28;853;-59
2023/04/09 03:18:40;;;;;;;;;;;;;;;3.58;100.00;100239.09;5072024;28;798;-59
2023/04/09 03:21:07;;;;;;;;;;;;;;;3.53;100.00;100229.22;5071986;28;916;-59
2023/04/09 03:23:34;;;;;;;;;;;;;;;3.55;100.00;100243.34;5070602;28;1182;-59
2023/04/09 03:26:01;;;;;;;;;;;;;;;3.49;100.00;100244.72;5071894;28;834;-59
2023/04/09 03:28:28;;;;;;;;;;;;;;;3.45;100.00;100236.38;5071905;28;814;-59
2023/04/09 03:30:55;;;;;;;;;;;;;;;3.48;100.00;100237.66;5071792;28;1910;-59
2023/04/09 03:33:21;;;;;;;;;;;;;;;3.52;100.00;100246.78;5071745;28;877;-59
2023/04/09 03:35:48;;;;;;;;;;;;;;;3.53;100.00;100240.16;5071845;28;810;-59
2023/04/09 03:38:14;;;;;;;;;;;;;;;3.53;100.00;100248.34;5071766;28;802;-59
2023/04/09 03:40:41;;;;;;;;;;;;;;;3.57;100.00;100246.53;5071804;28;891;-59
2023/04/09 03:43:08;;;;;;;;;;;;;;;3.63;100.00;100256.09;5071689;28;791;-59
2023/04/09 03:45:35;;;;;;;;;;;;;;;3.36;100.00;100260.31;5070475;28;798;-59
2023/04/09 03:48:01;;;;;;;;;;;;;;;3.05;100.00;100263.59;5071893;28;814;-59
2023/04/09 03:50:28;;;;;;;;;;;;;;;2.73;100.00;100265.28;5070298;28;1903;-59
2023/04/09 03:52:54;;;;;;;;;;;;;;;2.48;100.00;100265.22;5071540;28;901;-59
2023/04/09 03:55:21;;;;;;;;;;;;;;;2.29;100.00;100265.72;5071560;28;849;-59
2023/04/09 03:57:47;;;;;;;;;;;;;;;2.11;100.00;100265.06;5071503;28;850;-59
2023/04/09 04:00:14;;;;;;;;;;;;;;;2.03;100.00;100255.06;5071530;28;893;-59
2023/04/09 04:02:40;;;;;;;;;;;;;;;1.99;100.00;100259.56;5071511;28;865;-59
2023/04/09 04:05:06;;;;;;;;;;;;;;;1.93;100.00;100258.19;5071436;28;913;-59
2023/04/09 04:07:33;;;;;;;;;;;;;;;1.92;100.00;100259.28;5071479;28;810;-59
2023/04/09 04:09:59;;;;;;;;;;;;;;;1.93;100.00;100255.44;5071782;28;1022;-59
2023/04/09 04:12:26;;;;;;;;;;;;;;;1.96;100.00;100258.31;5071998;28;1907;-59
2023/04/09 04:14:52;;;;;;;;;;;;;;;2.05;100.00;100266.44;5075667;28;821;-59
2023/04/09 04:17:19;;;;;;;;;;;;;;;2.15;100.00;100257.03;5075503;28;814;-59
2023/04/09 04:19:45;;;;;;;;;;;;;;;2.24;100.00;100257.72;5075486;28;842;-59
2023/04/09 04:22:12;;;;;;;;;;;;;;;2.34;100.00;100264.72;5075306;28;802;-59
2023/04/09 04:24:38;;;;;;;;;;;;;;;2.49;100.00;100260.56;5075370;28;817;-59
2023/04/09 04:27:05;;;;;;;;;;;;;;;2.64;100.00;100268.88;5075313;28;827;-59
2023/04/09 04:29:31;;;;;;;;;;;;;;;2.82;100.00;100263.25;5075290;28;806;-59
2023/04/09 04:31:56;;;;;;;;;;;;;;;2.95;100.00;100262.13;5075246;28;1976;-59
2023/04/09 04:34:23;;;;;;;;;;;;;;;3.03;100.00;100271.34;5075262;28;856;-59
2023/04/09 04:36:49;;;;;;;;;;;;;;;3.15;100.00;100259.63;5075410;28;834;-59
2023/04/09 04:39:15;;;;;;;;;;;;;;;3.25;100.00;100259.19;5075639;28;814;-59
2023/04/09 04:41:41;;;;;;;;;;;;;;;3.37;100.00;100263.84;5076077;28;778;-59
2023/04/09 04:44:08;;;;;;;;;;;;;;;3.60;100.00;100262.22;5074940;28;889;-59
2023/04/09 04:46:34;;;;;;;;;;;;;;;3.94;100.00;100273.00;5074947;28;845;-59
2023/04/09 04:49:01;;;;;;;;;;;;;;;4.42;100.00;100274.75;5073648;28;1397;-59
2023/04/09 04:51:30;;;;;;;;;;;;;;;4.95;100.00;100280.06;5074945;28;1944;-59
2023/04/09 04:53:56;;;;;;;;;;;;;;;5.30;100.00;100288.34;5074901;28;1021;-59
2023/04/09 04:56:23;;;;;;;;;;;;;;;5.35;100.00;100284.53;5074788;28;892;-59
2023/04/09 04:58:49;;;;;;;;;;;;;;;5.34;100.00;100291.19;5074822;28;894;-59
2023/04/09 05:01:21;;;;;;;;;;;;;;;5.33;100.00;100297.81;5074609;28;809;-59
2023/04/09 05:03:48;;;;;;;;;;;;;;;5.48;100.00;100302.50;5073349;28;1304;-59
2023/04/09 05:06:14;;;;;;;;;;;;;;;5.61;100.00;100299.63;5074629;28;931;-59
2023/04/09 05:08:45;;;;;;;;;;;;;;;5.67;100.00;100314.66;5074761;28;910;-59
2023/04/09 05:11:12;;;;;;;;;;;;;;;5.83;100.00;100303.66;5074282;28;1967;-59
2023/04/09 05:13:38;;;;;;;;;;;;;;;5.91;100.00;100297.97;5074449;28;802;-59
2023/04/09 05:16:06;;;;;;;;;;;;;;;6.00;100.00;100291.53;5074429;28;810;-59
2023/04/09 05:18:32;;;;;;;;;;;;;;;6.15;100.00;100295.38;5074571;28;842;-59
2023/04/09 05:20:59;;;;;;;;;;;;;;;6.26;100.00;100299.13;5072926;28;842;-59
2023/04/09 05:23:26;;;;;;;;;;;;;;;6.49;100.00;100290.94;5074030;28;826;-59
2023/04/09 05:25:52;;;;;;;;;;;;;;;6.84;100.00;100301.00;5074098;28;852;-59
2023/04/09 05:28:19;;;;;;;;;;;;;;;7.22;100.00;100299.31;5074202;28;854;-59
2023/04/09 05:30:45;;;;;;;;;;;;;;;7.44;100.00;100295.72;5074273;28;1950;-59
2023/04/09 05:33:12;;;;;;;;;;;;;;;7.67;100.00;100292.94;5074153;28;928;-59
2023/04/09 05:35:39;;;;;;;;;;;;;;;8.04;100.00;100288.72;5074020;28;833;-59
2023/04/09 05:38:05;;;;;;;;;;;;;;;8.59;100.00;100292.56;5074091;28;925;-59
2023/04/09 05:40:31;;;;;;;;;;;;;;;9.35;100.00;100293.28;5074122;28;810;-59
2023/04/09 05:42:58;;;;;;;;;;;;;;;10.07;100.00;100296.50;5074392;28;807;-59
2023/04/09 05:45:25;;;;;;;;;;;;;;;10.21;100.00;100302.09;5074134;28;885;-59
2023/04/09 05:47:51;;;;;;;;;;;;;;;10.21;100.00;100302.09;5074312;28;861;-59
2023/04/09 05:50:17;;;;;;;;;;;;;;;10.01;100.00;100294.09;5074302;28;1945;-59
2023/04/09 05:52:44;;;;;;;;;;;;;;;10.44;100.00;100298.28;5073661;28;802;-59
2023/04/09 05:55:10;;;;;;;;;;;;;;;11.09;100.00;100304.72;5073672;28;865;-59
2023/04/09 05:57:36;;;;;;;;;;;;;;;11.17;100.00;100296.03;5073618;28;846;-59
2023/04/09 06:00:03;;;;;;;;;;;;;;;11.46;100.00;100296.06;5073583;28;900;-59
2023/04/09 06:02:30;;;;;;;;;;;;;;;11.65;100.00;100297.63;5073516;28;1056;-59
2023/04/09 06:04:57;;;;;;;;;;;;;;;11.71;100.00;100295.22;5073528;28;846;-59
2023/04/09 06:07:23;;;;;;;;;;;;;;;11.58;100.00;100297.59;5073383;28;861;-59
2023/04/09 06:09:50;;;;;;;;;;;;;;;11.49;100.00;100303.56;5073780;28;1030;-59
2023/04/09 06:12:16;;;;;;;;;;;;;;;11.69;100.00;100308.66;5073155;28;1902;-59
2023/04/09 06:14:43;;;;;;;;;;;;;;;12.08;100.00;100310.59;5073223;28;815;-59
2023/04/09 06:17:09;;;;;;;;;;;;;;;12.24;100.00;100310.94;5073267;28;838;-59
2023/04/09 06:19:36;;;;;;;;;;;;;;;12.08;100.00;100313.34;5073120;28;893;-59
2023/04/09 06:22:02;;;;;;;;;;;;;;;12.11;100.00;100313.34;5073357;28;861;-59
2023/04/09 06:24:30;;;;;;;;;;;;;;;12.83;98.62;100313.03;5073161;28;842;-59
2023/04/09 06:26:56;;;;;;;;;;;;;;;12.47;98.55;100316.00;5073034;28;900;-59
2023/04/09 06:29:22;;;;;;;;;;;;;;;12.80;97.17;100309.09;5072962;28;910;-59
2023/04/09 06:31:49;;;;;;;;;;;;;;;13.43;92.86;100311.06;5072847;28;1951;-59
2023/04/09 06:34:15;;;;;;;;;;;;;;;13.44;92.34;100309.84;5073171;28;829;-59
2023/04/09 06:36:43;;;;;;;;;;;;;;;13.66;93.40;100310.47;5072116;28;815;-59
2023/04/09 06:39:10;;;;;;;;;;;;;;;13.94;90.40;100309.38;5072825;28;877;-59
2023/04/09 06:41:37;;;;;;;;;;;;;;;13.62;92.01;100310.47;5071461;28;1211;-59
2023/04/09 06:44:04;;;;;;;;;;;;;;;14.27;88.46;100299.50;5072835;28;845;-59
2023/04/09 06:46:31;;;;;;;;;;;;;;;14.85;85.40;100310.66;5072622;28;877;-59
2023/04/09 06:48:57;;;;;;;;;;;;;;;15.63;80.64;100298.69;5072494;28;810;-59
2023/04/09 06:51:30;;;;;;;;;;;;;;;16.51;81.19;100292.63;5072579;28;1945;-59
2023/04/09 06:54:08;;;;;;;;;;;;;;;17.12;73.44;100296.06;5071231;28;1326;-59
2023/04/09 06:56:35;;;;;;;;;;;;;;;16.96;73.19;100294.03;5072483;28;908;-59
2023/04/09 06:59:02;;;;;;;;;;;;;;;17.38;72.51;100291.44;5072436;28;924;-59
2023/04/09 07:01:29;;;;;;;;;;;;;;;18.08;68.75;100292.81;5072329;28;818;-59
2023/04/09 07:03:55;;;;;;;;;;;;;;;18.19;66.69;100289.72;5072563;28;881;-59
2023/04/09 07:06:22;;;;;;;;;;;;;;;18.54;66.10;100284.28;5072272;28;901;-59
2023/04/09 07:08:49;;;;;;;;;;;;;;;18.26;66.86;100285.91;5072337;28;986;-59
2023/04/09 07:11:18;;;;;;;;;;;;;;;18.56;65.40;100281.81;5071985;28;1993;-59
2023/04/09 07:13:44;;;;;;;;;;;;;;;18.67;64.76;100282.31;5072181;28;900;-60
2023/04/09 07:16:11;;;;;;;;;;;;;;;18.41;64.29;100291.88;5072054;28;865;-59
2023/04/09 07:18:37;;;;;;;;;;;;;;;17.65;65.85;100291.16;5072258;28;838;-59
2023/04/09 07:21:04;;;;;;;;;;;;;;;17.11;68.38;100291.69;5072012;28;833;-59
2023/04/09 07:23:33;;;;;;;;;;;;;;;17.04;68.43;100287.06;5071980;28;807;-59
2023/04/09 07:26:00;;;;;;;;;;;;;;;17.49;68.41;100291.16;5071927;28;1015;-59
2023/04/09 07:28:27;;;;;;;;;;;;;;;18.16;60.52;100285.78;5071961;28;857;-59
2023/04/09 07:30:54;;;;;;;;;;;;;;;18.31;55.18;100290.97;5072022;28;1960;-59
2023/04/09 07:33:20;;;;;;;;;;;;;;;18.48;56.28;100286.09;5070633;28;856;-59
2023/04/09 07:35:47;;;;;;;;;;;;;;;18.84;54.14;100285.81;5071802;28;830;-59
2023/04/09 07:38:15;;;;;;;;;;;;;;;18.81;54.65;100283.91;5071761;28;873;-59
2023/04/09 07:40:41;;;;;;;;;;;;;;;19.20;53.68;100278.28;5071787;28;857;-59
2023/04/09 07:43:07;;;;;;;;;;;;;;;19.15;53.94;100280.41;5071735;28;826;-59
2023/04/09 07:45:34;;;;;;;;;;;;;;;19.14;55.34;100287.25;5071701;28;908;-59
2023/04/09 07:48:01;;;;;;;;;;;;;;;18.63;53.26;100287.22;5071480;28;886;-59
2023/04/09 07:50:28;;;;;;;;;;;;;;;18.13;55.02;100289.44;5070309;28;1952;-59
2023/04/09 07:52:54;;;;;;;;;;;;;;;16.82;58.41;100294.38;5071811;28;892;-59
2023/04/09 07:55:21;;;;;;;;;;;;;;;17.15;59.50;100295.19;5071772;28;896;-58
2023/04/09 07:57:50;;;;;;;;;;;;;;;17.30;58.71;100290.03;5071729;28;841;-59
2023/04/09 08:00:18;;;;;;;;;;;;;;;18.08;57.46;100290.00;5071666;28;843;-58
2023/04/09 08:02:43;;;;;;;;;;;;;;;18.10;55.64;100281.97;5071608;28;866;-58
2023/04/09 08:05:10;;;;;;;;;;;;;;;18.30;56.38;100290.19;5071521;28;818;-59
2023/04/09 08:07:37;;;;;;;;;;;;;;;18.38;56.03;100293.56;5071489;28;869;-59
2023/04/09 08:10:04;;;;;;;;;;;;;;;18.47;53.74;100296.47;5071797;28;1096;-58
2023/04/09 08:12:31;;;;;;;;;;;;;;;17.92;55.92;100290.06;5071232;28;1934;-57
2023/04/09 08:14:59;;;;;;;;;;;;;;;17.54;55.87;100287.84;5071383;28;862;-58
2023/04/09 08:17:26;;;;;;;;;;;;;;;17.92;57.34;100281.66;5071265;28;829;-58
2023/04/09 08:19:52;;;;;;;;;;;;;;;18.48;55.18;100286.88;5071372;28;838;-58
2023/04/09 08:22:21;;;;;;;;;;;;;;;18.90;53.79;100286.03;5071345;28;827;-58
2023/04/09 08:25:17;;;;;;;;;;;;;;;18.90;53.32;100280.41;5071332;28;862;-58
2023/04/09 08:27:43;;;;;;;;;;;;;;;18.91;53.87;100287.59;5071267;28;838;-59
2023/04/09 08:30:10;;;;;;;;;;;;;;;19.22;54.41;100290.59;5071237;28;822;-59
2023/04/09 08:32:36;;;;;;;;;;;;;;;19.08;53.78;100288.28;5071118;28;1886;-59
2023/04/09 08:35:03;;;;;;;;;;;;;;;18.17;54.02;100287.34;5071395;28;849;-59
2023/04/09 08:37:29;;;;;;;;;;;;;;;17.80;54.00;100287.97;5071145;28;853;-59
2023/04/09 08:39:56;;;;;;;;;;;;;;;17.94;54.42;100284.81;5071206;28;959;-59
2023/04/09 08:42:24;;;;;;;;;;;;;;;18.40;57.13;100285.50;5071437;28;806;-59
2023/04/09 08:44:50;;;;;;;;;;;;;;;19.31;57.34;100285.09;5071098;28;807;-59
2023/04/09 08:47:16;;;;;;;;;;;;;;;19.51;52.57;100279.22;5070479;28;881;-59
2023/04/09 08:49:42;;;;;;;;;;;;;;;18.48;52.54;100252.50;5070395;28;865;-59
2023/04/09 08:52:08;;;;;;;;;;;;;;;18.17;52.85;100276.16;5070709;28;1941;-58
2023/04/09 08:54:34;;;;;;;;;;;;;;;17.86;57.14;100281.44;5071096;28;810;-59
2023/04/09 08:57:03;;;;;;;;;;;;;;;17.40;55.84;100288.97;5071051;28;810;-59
2023/04/09 08:59:29;;;;;;;;;;;;;;;16.83;56.65;100285.56;5073349;28;893;-59
2023/04/09 09:02:06;;;;;;;;;;;;;;;17.17;57.79;100283.59;5073415;28;1290;-59
2023/04/09 09:04:59;;;;;;;;;;;;;;;17.84;55.02;100283.09;5075190;28;878;-58
2023/04/09 09:07:29;;;;;;;;;;;;;;;18.13;54.50;100281.06;5074654;28;884;-59
2023/04/09 09:09:58;;;;;;;;;;;;;;;18.43;53.07;100278.22;5075033;28;947;-59
2023/04/09 09:12:31;;;;;;;;;;;;;;;18.26;52.54;100274.72;5074247;28;1902;-59
2023/04/09 09:14:58;;;;;;;;;;;;;;;17.98;52.95;100265.91;5074464;28;834;-59
2023/04/09 09:17:25;;;;;;;;;;;;;;;17.73;54.21;100263.78;5074406;28;822;-59
2023/04/09 09:19:51;;;;;;;;;;;;;;;17.87;52.40;100257.03;5073062;28;1321;-59
2023/04/09 09:22:18;;;;;;;;;;;;;;;17.70;54.13;100254.25;5074343;28;830;-59
2023/04/09 09:24:47;;;;;;;;;;;;;;;17.62;52.81;100263.28;5074334;28;873;-59
2023/04/09 09:27:42;;;;;;;;;;;;;;;17.45;53.00;100271.69;5074146;28;844;-59
2023/04/09 09:30:19;;;;;;;;;;;;;;;17.30;53.51;100276.06;5074174;28;1202;-59
2023/04/09 09:32:46;;;;;;;;;;;;;;;17.47;53.25;100271.25;5074126;28;1939;-59
2023/04/09 09:35:12;;;;;;;;;;;;;;;17.45;51.45;100270.91;5074062;28;834;-59
2023/04/09 09:37:38;;;;;;;;;;;;;;;17.40;52.19;100265.84;5073992;28;811;-59
2023/04/09 10:11:06;;;;;;;;;;;;;;;17.67;48.13;100238.38;5087804;22;1963;-55
2023/04/09 10:13:39;;;;;;;;;;;;;;;17.39;47.31;100228.75;5073485;28;853;-55
2023/04/09 10:16:08;;;;;;;;;;;;;;;17.58;48.52;100232.66;5073354;28;912;-55
2023/04/09 10:18:35;;;;;;;;;;;;;;;17.63;49.07;100231.31;5073296;28;827;-56
2023/04/09 10:21:06;;;;;;;;;;;;;;;17.90;48.10;100234.59;5073297;28;1028;-56
2023/04/09 10:23:40;;;;;;;;;;;;;;;18.24;46.83;100230.41;5073491;28;972;-56
2023/04/09 10:26:07;;;;;;;;;;;;;;;18.26;48.23;100227.94;5073169;28;884;-55
2023/04/09 10:28:36;;;;;;;;;;;;;;;18.40;48.00;100228.75;5073111;28;829;-56
2023/04/09 10:31:06;;;;;;;;;;;;;;;18.50;46.06;100231.22;5072946;28;1942;-56
2023/04/09 10:33:32;;;;;;;;;;;;;;;18.33;46.56;100224.16;5073788;28;787;-56
2023/04/09 10:36:03;;;;;;;;;;;;;;;18.51;47.45;100234.81;5073027;28;1143;-56
2023/04/09 10:38:39;;;;;;;;;;;;;;;18.31;47.52;100227.41;5072791;28;885;-56
2023/04/09 10:41:07;;;;;;;;;;;;;;;18.05;47.55;100223.78;5072684;28;877;-56
2023/04/09 10:43:36;;;;;;;;;;;;;;;17.68;47.78;100222.38;5072785;28;889;-56
2023/04/09 10:46:07;;;;;;;;;;;;;;;17.51;48.00;100211.25;5072724;28;830;-56
2023/04/09 10:48:33;;;;;;;;;;;;;;;17.27;49.67;100210.69;5072946;28;929;-55
2023/04/09 10:51:02;;;;;;;;;;;;;;;17.62;50.11;100205.38;5072501;28;1979;-56
2023/04/09 10:53:31;;;;;;;;;;;;;;;18.04;48.13;100207.44;5072541;28;925;-55
2023/04/09 10:55:57;;;;;;;;;;;;;;;18.11;48.32;100210.00;5072771;28;857;-55
2023/04/09 10:58:24;;;;;;;;;;;;;;;18.65;47.47;100203.59;5072628;28;877;-56
2023/04/09 11:00:50;;;;;;;;;;;;;;;19.31;47.41;100194.63;5073273;28;794;-55
2023/04/09 11:03:27;;;;;;;;;;;;;;;18.77;45.13;100202.00;5072358;28;869;-55
2023/04/09 11:05:56;;;;;;;;;;;;;;;18.06;47.16;100202.97;5072347;28;1000;-55
2023/04/09 11:08:26;;;;;;;;;;;;;;;18.50;48.09;100203.25;5072253;28;1017;-55
2023/04/09 11:10:57;;;;;;;;;;;;;;;18.78;45.92;100186.81;5072001;28;1985;-56
2023/04/09 11:13:24;;;;;;;;;;;;;;;18.41;45.32;100189.13;5072187;28;854;-56
2023/04/09 11:15:50;;;;;;;;;;;;;;;18.72;45.25;100186.53;5072087;28;968;-55
2023/04/09 11:18:21;;;;;;;;;;;;;;;19.29;44.76;100185.91;5072170;28;873;-55
2023/04/09 11:20:48;;;;;;;;;;;;;;;19.15;44.44;100179.53;5072086;28;834;-55
2023/04/09 11:23:16;;;;;;;;;;;;;;;19.08;44.31;100165.00;5072322;28;813;-56
2023/04/09 11:25:47;;;;;;;;;;;;;;;18.96;43.27;100166.59;5072292;28;873;-55
2023/04/09 11:28:13;;;;;;;;;;;;;;;18.66;44.71;100167.97;5071888;28;940;-55
2023/04/09 11:30:41;;;;;;;;;;;;;;;18.33;44.10;100176.59;5071935;28;1973;-55
2023/04/09 11:33:08;;;;;;;;;;;;;;;18.53;45.27;100168.75;5071771;28;866;-55
2023/04/09 11:35:35;;;;;;;;;;;;;;;18.92;44.89;100158.31;5072095;28;909;-55
2023/04/09 11:38:10;;;;;;;;;;;;;;;18.97;44.07;100162.56;5071753;28;802;-56
2023/04/09 11:40:46;;;;;;;;;;;;;;;18.91;45.76;100162.34;5071938;28;864;-56
2023/04/09 11:43:15;;;;;;;;;;;;;;;19.40;44.83;100165.91;5072187;28;814;-56
2023/04/09 11:45:41;;;;;;;;;;;;;;;19.45;44.38;100159.72;5071692;28;928;-56
2023/04/09 11:48:07;;;;;;;;;;;;;;;19.74;44.60;100159.50;5072213;28;809;-56
2023/04/09 11:50:34;;;;;;;;;;;;;;;19.27;45.92;100154.75;5072221;28;1882;-56
2023/04/09 11:53:00;;;;;;;;;;;;;;;19.48;44.98;100142.78;5072372;28;806;-56
2023/04/09 11:55:28;;;;;;;;;;;;;;;19.47;45.47;100144.00;5070472;28;869;-56
2023/04/09 11:57:59;;;;;;;;;;;;;;;18.71;45.89;100140.19;5071810;28;865;-55
2023/04/09 12:00:27;;;;;;;;;;;;;;;18.07;46.68;100145.00;5071457;28;937;-56
2023/04/09 12:03:04;;;;;;;;;;;;;;;18.06;48.20;100144.22;5071527;28;893;-55
2023/04/09 12:05:34;;;;;;;;;;;;;;;18.13;47.59;100137.63;5071458;28;814;-55
2023/04/09 12:08:02;;;;;;;;;;;;;;;18.85;47.27;100143.78;5071245;28;1075;-55
2023/04/09 12:10:29;;;;;;;;;;;;;;;19.82;44.68;100135.53;5071247;28;1489;-55
2023/04/09 12:13:03;;;;;;;;;;;;;;;20.34;43.03;100131.13;5071432;28;905;-55
2023/04/09 12:15:31;;;;;;;;;;;;;;;21.15;42.19;100130.25;5071368;28;884;-56
2023/04/09 12:17:58;;;;;;;;;;;;;;;20.72;41.14;100130.03;5071432;28;845;-56
2023/04/09 12:20:27;;;;;;;;;;;;;;;19.79;42.51;100128.06;5071314;28;881;-55
2023/04/09 12:22:54;;;;;;;;;;;;;;;18.80;43.00;100128.34;5071310;28;905;-55
2023/04/09 12:25:21;;;;;;;;;;;;;;;18.48;44.25;100120.97;5071333;28;856;-55
2023/04/09 12:27:47;;;;;;;;;;;;;;;18.88;43.79;100123.25;5071290;28;880;-55
2023/04/09 12:30:14;;;;;;;;;;;;;;;19.13;43.28;100122.41;5071362;28;869;-55
2023/04/09 12:32:43;;;;;;;;;;;;;;;19.25;43.59;100109.59;5071117;28;1886;-55
2023/04/09 12:35:11;;;;;;;;;;;;;;;18.93;43.73;100117.88;5074911;28;1103;-55
2023/04/09 12:37:37;;;;;;;;;;;;;;;17.70;45.27;100119.31;5075030;28;876;-55
2023/04/09 12:40:05;;;;;;;;;;;;;;;16.99;47.52;100116.50;5075210;28;924;-55
2023/04/09 12:42:31;;;;;;;;;;;;;;;17.73;46.82;100099.66;5075094;28;918;-54
2023/04/09 12:44:58;;;;;;;;;;;;;;;18.47;45.57;100108.97;5075111;28;849;-53
2023/04/09 12:47:24;;;;;;;;;;;;;;;18.70;44.79;100107.03;5075023;28;888;-54
2023/04/09 12:49:51;;;;;;;;;;;;;;;18.74;44.50;100096.50;5074985;28;829;-54
2023/04/09 12:52:18;;;;;;;;;;;;;;;18.50;44.24;100094.09;5074788;28;1890;-52
2023/04/09 12:54:45;;;;;;;;;;;;;;;18.02;45.88;100087.63;5073549;28;825;-55
2023/04/09 12:57:12;;;;;;;;;;;;;;;17.95;46.09;100091.41;5075194;28;868;-56
2023/04/09 12:59:38;;;;;;;;;;;;;;;18.29;45.95;100089.19;5074757;28;852;-56
2023/04/09 13:02:06;;;;;;;;;;;;;;;18.49;45.49;100091.72;5074661;28;885;-55
2023/04/09 13:04:33;;;;;;;;;;;;;;;18.23;45.11;100082.59;5074658;28;860;-55
2023/04/09 13:07:00;;;;;;;;;;;;;;;17.81;47.32;100080.63;5074614;28;865;-55
2023/04/09 13:09:42;;;;;;;;;;;;;;;18.53;46.90;100087.59;5074711;28;1073;-55
2023/04/09 13:12:11;;;;;;;;;;;;;;;18.30;45.69;100076.75;5054548;28;1969;-55
2023/04/09 13:14:38;;;;;;;;;;;;;;;17.31;46.50;100080.09;5053216;28;1856;-54
2023/04/09 13:17:04;;;;;;;;;;;;;;;16.22;48.44;100082.50;5054292;28;901;-55
2023/04/09 13:19:31;;;;;;;;;;;;;;;17.08;49.03;100086.69;5036565;28;1378;-55
2023/04/09 13:21:57;;;;;;;;;;;;;;;17.97;45.28;100085.38;5054209;28;937;-54
2023/04/09 13:24:24;;;;;;;;;;;;;;;18.23;44.54;100074.19;5054654;28;838;-55
2023/04/09 13:26:56;;;;;;;;;;;;;;;18.07;44.38;100078.69;5054230;28;830;-55
2023/04/09 13:29:28;;;;;;;;;;;;;;;17.05;47.19;100075.66;5054273;28;814;-55